sensor_id;sensor_type;location;lat;lon;timestamp;temperature;humidity
73939;DHT22;62291;47.554;8.504;2023-12-22T00:02:16;8.90;99.90
73939;DHT22;62291;47.554;8.504;2023-12-22T00:04:42;8.90;99.90
73939;DHT22;62291;47.554;8.504;2023-12-22T00:07:08;8.90;99.90
73939;DHT22;62291;47.554;8.504;2023-12-22T00:09:33;8.90;99.90
73939;DHT22;62291;47.554;8.504;2023-12-22T00:11:59;8.90;99.90
73939;DHT22;62291;47.554;8.504;2023-12-22T00:14:25;8.80;99.90
73939;DHT22;62291;47.554;8.504;2023-12-22T00:16:50;8.90;99.90
73939;DHT22;62291;47.554;8.504;2023-12-22T00:19:16;8.80;99.90
73939;DHT22;62291;47.554;8.504;2023-12-22T00:21:42;8.80;99.90
73939;DHT22;62291;47.554;8.504;2023-12-22T00:24:07;8.80;99.90
73939;DHT22;62291;47.554;8.504;2023-12-22T00:26:33;8.80;99.90
73939;DHT22;62291;47.554;8.504;2023-12-22T00:28:59;8.70;99.90
73939;DHT22;62291;47.554;8.504;2023-12-22T00:31:24;8.80;99.90
73939;DHT22;62291;47.554;8.504;2023-12-22T00:33:50;8.80;99.90
73939;DHT22;62291;47.554;8.504;2023-12-22T00:36:16;8.90;99.90
73939;DHT22;62291;47.554;8.504;2023-12-22T00:38:43;8.90;99.90
73939;DHT22;62291;47.554;8.504;2023-12-22T00:41:10;8.80;99.90
73939;DHT22;62291;47.554;8.504;2023-12-22T00:43:35;8.90;99.90
73939;DHT22;62291;47.554;8.504;2023-12-22T00:46:01;8.90;99.90
73939;DHT22;62291;47.554;8.504;2023-12-22T00:48:27;8.90;99.90
73939;DHT22;62291;47.554;8.504;2023-12-22T00:50:53;8.90;99.90
73939;DHT22;62291;47.554;8.504;2023-12-22T00:53:19;8.90;99.90
73939;DHT22;62291;47.554;8.504;2023-12-22T00:55:45;8.90;99.90
73939;DHT22;62291;47.554;8.504;2023-12-22T00:58:11;8.90;99.90
73939;DHT22;62291;47.554;8.504;2023-12-22T01:00:37;8.80;99.90
73939;DHT22;62291;47.554;8.504;2023-12-22T01:03:02;8.70;99.90
73939;DHT22;62291;47.554;8.504;2023-12-22T01:05:28;8.60;99.90
73939;DHT22;62291;47.554;8.504;2023-12-22T01:07:54;8.60;99.90
73939;DHT22;62291;47.554;8.504;2023-12-22T01:10:20;8.40;99.90
73939;DHT22;62291;47.554;8.504;2023-12-22T01:12:46;8.30;99.90
73939;DHT22;62291;47.554;8.504;2023-12-22T01:15:11;7.90;99.90
73939;DHT22;62291;47.554;8.504;2023-12-22T01:17:37;7.70;99.90
73939;DHT22;62291;47.554;8.504;2023-12-22T01:20:04;7.50;99.90
73939;DHT22;62291;47.554;8.504;2023-12-22T01:22:30;7.50;99.90
73939;DHT22;62291;47.554;8.504;2023-12-22T01:24:57;7.50;99.90
73939;DHT22;62291;47.554;8.504;2023-12-22T01:27:23;7.60;99.90
73939;DHT22;62291;47.554;8.504;2023-12-22T01:29:48;7.60;99.90
73939;DHT22;62291;47.554;8.504;2023-12-22T01:32:14;7.70;99.90
73939;DHT22;62291;47.554;8.504;2023-12-22T01:34:40;7.70;99.90
73939;DHT22;62291;47.554;8.504;2023-12-22T01:37:05;7.70;99.90
73939;DHT22;62291;47.554;8.504;2023-12-22T01:39:31;7.70;99.90
73939;DHT22;62291;47.554;8.504;2023-12-22T01:41:57;7.80;99.90
73939;DHT22;62291;47.554;8.504;2023-12-22T01:44:22;7.80;99.90
73939;DHT22;62291;47.554;8.504;2023-12-22T01:46:50;7.80;99.90
73939;DHT22;62291;47.554;8.504;2023-12-22T01:49:16;7.70;99.90
73939;DHT22;62291;47.554;8.504;2023-12-22T01:51:42;7.70;99.90
73939;DHT22;62291;47.554;8.504;2023-12-22T01:54:09;7.70;99.90
73939;DHT22;62291;47.554;8.504;2023-12-22T01:56:36;7.70;99.90
73939;DHT22;62291;47.554;8.504;2023-12-22T01:59:02;7.60;99.90
73939;DHT22;62291;47.554;8.504;2023-12-22T02:01:28;7.50;99.90
73939;DHT22;62291;47.554;8.504;2023-12-22T02:03:54;7.50;99.90
73939;DHT22;62291;47.554;8.504;2023-12-22T02:06:21;7.50;99.90
73939;DHT22;62291;47.554;8.504;2023-12-22T02:08:47;7.50;99.90
73939;DHT22;62291;47.554;8.504;2023-12-22T02:11:14;7.60;99.90
73939;DHT22;62291;47.554;8.504;2023-12-22T02:13:40;7.60;99.90
73939;DHT22;62291;47.554;8.504;2023-12-22T02:16:23;7.70;99.90
73939;DHT22;62291;47.554;8.504;2023-12-22T02:18:54;7.80;99.90
73939;DHT22;62291;47.554;8.504;2023-12-22T02:21:20;7.80;99.90
73939;DHT22;62291;47.554;8.504;2023-12-22T02:23:47;7.80;99.90
73939;DHT22;62291;47.554;8.504;2023-12-22T02:28:50;7.90;99.90
73939;DHT22;62291;47.554;8.504;2023-12-22T02:31:27;8.00;99.90
73939;DHT22;62291;47.554;8.504;2023-12-22T02:33:58;7.90;99.90
73939;DHT22;62291;47.554;8.504;2023-12-22T02:36:25;7.80;99.90
73939;DHT22;62291;47.554;8.504;2023-12-22T02:38:53;7.70;99.90
73939;DHT22;62291;47.554;8.504;2023-12-22T02:41:19;7.60;99.90
73939;DHT22;62291;47.554;8.504;2023-12-22T02:43:45;7.60;99.90
73939;DHT22;62291;47.554;8.504;2023-12-22T02:46:14;7.60;99.90
73939;DHT22;62291;47.554;8.504;2023-12-22T02:48:40;7.60;99.90
73939;DHT22;62291;47.554;8.504;2023-12-22T02:51:06;7.60;99.90
73939;DHT22;62291;47.554;8.504;2023-12-22T02:53:32;7.60;99.90
73939;DHT22;62291;47.554;8.504;2023-12-22T02:55:57;7.60;99.90
73939;DHT22;62291;47.554;8.504;2023-12-22T02:58:23;7.70;99.90
73939;DHT22;62291;47.554;8.504;2023-12-22T03:00:49;7.80;99.90
73939;DHT22;62291;47.554;8.504;2023-12-22T03:03:14;7.80;99.90
73939;DHT22;62291;47.554;8.504;2023-12-22T03:05:40;7.80;99.90
73939;DHT22;62291;47.554;8.504;2023-12-22T03:08:06;7.80;99.90
73939;DHT22;62291;47.554;8.504;2023-12-22T03:10:32;7.90;99.90
73939;DHT22;62291;47.554;8.504;2023-12-22T03:12:57;7.90;99.90
73939;DHT22;62291;47.554;8.504;2023-12-22T03:15:23;7.90;99.90
73939;DHT22;62291;47.554;8.504;2023-12-22T03:17:48;7.90;99.90
73939;DHT22;62291;47.554;8.504;2023-12-22T03:20:14;7.90;99.90
73939;DHT22;62291;47.554;8.504;2023-12-22T03:22:40;7.90;99.90
73939;DHT22;62291;47.554;8.504;2023-12-22T03:25:06;7.90;99.90
73939;DHT22;62291;47.554;8.504;2023-12-22T03:27:31;8.00;99.90
73939;DHT22;62291;47.554;8.504;2023-12-22T03:29:57;7.90;99.90
73939;DHT22;62291;47.554;8.504;2023-12-22T03:32:23;7.90;99.90
73939;DHT22;62291;47.554;8.504;2023-12-22T03:34:48;7.90;99.90
73939;DHT22;62291;47.554;8.504;2023-12-22T03:37:14;7.90;99.90
73939;DHT22;62291;47.554;8.504;2023-12-22T03:39:39;7.90;99.90
73939;DHT22;62291;47.554;8.504;2023-12-22T03:42:05;7.90;99.90
73939;DHT22;62291;47.554;8.504;2023-12-22T03:44:31;7.90;99.90
73939;DHT22;62291;47.554;8.504;2023-12-22T03:46:57;7.90;99.90
73939;DHT22;62291;47.554;8.504;2023-12-22T03:49:22;7.90;99.90
73939;DHT22;62291;47.554;8.504;2023-12-22T03:51:48;7.90;99.90
73939;DHT22;62291;47.554;8.504;2023-12-22T03:54:14;8.00;99.90
73939;DHT22;62291;47.554;8.504;2023-12-22T03:56:41;8.00;99.90
73939;DHT22;62291;47.554;8.504;2023-12-22T03:59:07;8.00;99.90
73939;DHT22;62291;47.554;8.504;2023-12-22T04:01:32;8.00;99.90
73939;DHT22;62291;47.554;8.504;2023-12-22T04:03:58;8.00;99.90
73939;DHT22;62291;47.554;8.504;2023-12-22T04:06:23;8.00;99.90
73939;DHT22;62291;47.554;8.504;2023-12-22T04:08:49;8.00;99.90
73939;DHT22;62291;47.554;8.504;2023-12-22T04:11:15;8.00;99.90
73939;DHT22;62291;47.554;8.504;2023-12-22T04:13:40;8.00;99.90
73939;DHT22;62291;47.554;8.504;2023-12-22T04:16:06;8.00;99.90
73939;DHT22;62291;47.554;8.504;2023-12-22T04:18:32;8.00;99.90
73939;DHT22;62291;47.554;8.504;2023-12-22T04:20:58;8.00;99.90
73939;DHT22;62291;47.554;8.504;2023-12-22T04:23:23;8.00;99.90
73939;DHT22;62291;47.554;8.504;2023-12-22T04:25:49;8.00;99.90
73939;DHT22;62291;47.554;8.504;2023-12-22T04:28:15;8.00;99.90
73939;DHT22;62291;47.554;8.504;2023-12-22T04:30:41;8.00;99.90
73939;DHT22;62291;47.554;8.504;2023-12-22T04:33:07;8.00;99.90
73939;DHT22;62291;47.554;8.504;2023-12-22T04:35:33;8.00;99.90
73939;DHT22;62291;47.554;8.504;2023-12-22T04:37:59;8.00;99.90
73939;DHT22;62291;47.554;8.504;2023-12-22T04:40:24;8.00;99.90
73939;DHT22;62291;47.554;8.504;2023-12-22T04:42:50;8.00;99.90
73939;DHT22;62291;47.554;8.504;2023-12-22T04:45:16;8.00;99.90
73939;DHT22;62291;47.554;8.504;2023-12-22T04:47:42;7.90;99.90
73939;DHT22;62291;47.554;8.504;2023-12-22T04:50:08;7.90;99.90
73939;DHT22;62291;47.554;8.504;2023-12-22T04:52:34;7.80;99.90
73939;DHT22;62291;47.554;8.504;2023-12-22T04:55:00;7.80;99.90
73939;DHT22;62291;47.554;8.504;2023-12-22T04:57:25;7.70;99.90
73939;DHT22;62291;47.554;8.504;2023-12-22T04:59:51;7.70;99.90
73939;DHT22;62291;47.554;8.504;2023-12-22T05:02:16;7.70;99.90
73939;DHT22;62291;47.554;8.504;2023-12-22T05:04:42;7.60;99.90
73939;DHT22;62291;47.554;8.504;2023-12-22T05:07:08;7.60;99.90
73939;DHT22;62291;47.554;8.504;2023-12-22T05:09:36;7.60;99.90
73939;DHT22;62291;47.554;8.504;2023-12-22T05:12:02;7.60;99.90
73939;DHT22;62291;47.554;8.504;2023-12-22T05:14:27;7.50;99.90
73939;DHT22;62291;47.554;8.504;2023-12-22T05:16:53;7.60;99.90
73939;DHT22;62291;47.554;8.504;2023-12-22T05:19:21;7.60;99.90
73939;DHT22;62291;47.554;8.504;2023-12-22T05:21:47;7.60;99.90
73939;DHT22;62291;47.554;8.504;2023-12-22T05:24:14;7.60;99.90
73939;DHT22;62291;47.554;8.504;2023-12-22T05:26:40;7.60;99.90
73939;DHT22;62291;47.554;8.504;2023-12-22T05:29:06;7.60;99.90
73939;DHT22;62291;47.554;8.504;2023-12-22T05:31:33;7.60;99.90
73939;DHT22;62291;47.554;8.504;2023-12-22T05:34:00;7.60;99.90
73939;DHT22;62291;47.554;8.504;2023-12-22T05:36:25;7.60;99.90
73939;DHT22;62291;47.554;8.504;2023-12-22T05:38:51;7.60;99.90
73939;DHT22;62291;47.554;8.504;2023-12-22T05:41:17;7.60;99.90
73939;DHT22;62291;47.554;8.504;2023-12-22T05:43:42;7.60;99.90
73939;DHT22;62291;47.554;8.504;2023-12-22T05:46:08;7.60;99.90
73939;DHT22;62291;47.554;8.504;2023-12-22T05:48:35;7.60;99.90
73939;DHT22;62291;47.554;8.504;2023-12-22T05:51:01;7.60;99.90
73939;DHT22;62291;47.554;8.504;2023-12-22T05:53:28;7.60;99.90
73939;DHT22;62291;47.554;8.504;2023-12-22T05:55:54;7.60;99.90
73939;DHT22;62291;47.554;8.504;2023-12-22T05:58:20;7.60;99.90
73939;DHT22;62291;47.554;8.504;2023-12-22T06:00:45;7.60;99.90
73939;DHT22;62291;47.554;8.504;2023-12-22T06:03:11;7.70;99.90
73939;DHT22;62291;47.554;8.504;2023-12-22T06:05:37;7.70;99.90
73939;DHT22;62291;47.554;8.504;2023-12-22T06:08:03;7.60;99.90
73939;DHT22;62291;47.554;8.504;2023-12-22T06:10:29;7.60;99.90
73939;DHT22;62291;47.554;8.504;2023-12-22T06:12:54;7.60;99.90
73939;DHT22;62291;47.554;8.504;2023-12-22T06:15:20;7.70;99.90
73939;DHT22;62291;47.554;8.504;2023-12-22T06:17:45;7.70;99.90
73939;DHT22;62291;47.554;8.504;2023-12-22T06:20:11;7.60;99.90
73939;DHT22;62291;47.554;8.504;2023-12-22T06:22:37;7.70;99.90
73939;DHT22;62291;47.554;8.504;2023-12-22T06:25:03;7.70;99.90
73939;DHT22;62291;47.554;8.504;2023-12-22T06:27:33;7.70;99.90
73939;DHT22;62291;47.554;8.504;2023-12-22T06:29:59;7.80;99.90
73939;DHT22;62291;47.554;8.504;2023-12-22T06:32:24;7.80;99.90
73939;DHT22;62291;47.554;8.504;2023-12-22T06:34:50;7.70;99.90
73939;DHT22;62291;47.554;8.504;2023-12-22T06:37:15;7.80;99.90
73939;DHT22;62291;47.554;8.504;2023-12-22T06:39:42;7.80;99.90
73939;DHT22;62291;47.554;8.504;2023-12-22T06:42:07;7.70;99.90
73939;DHT22;62291;47.554;8.504;2023-12-22T06:44:37;7.80;99.90
73939;DHT22;62291;47.554;8.504;2023-12-22T06:47:03;7.80;99.90
73939;DHT22;62291;47.554;8.504;2023-12-22T06:49:28;7.70;99.90
73939;DHT22;62291;47.554;8.504;2023-12-22T06:51:54;7.80;99.90
73939;DHT22;62291;47.554;8.504;2023-12-22T06:54:20;7.80;99.90
73939;DHT22;62291;47.554;8.504;2023-12-22T06:56:45;7.80;99.90
73939;DHT22;62291;47.554;8.504;2023-12-22T06:59:11;7.80;99.90
73939;DHT22;62291;47.554;8.504;2023-12-22T07:01:37;7.80;99.90
73939;DHT22;62291;47.554;8.504;2023-12-22T07:04:04;7.80;99.90
73939;DHT22;62291;47.554;8.504;2023-12-22T07:06:34;7.80;99.90
73939;DHT22;62291;47.554;8.504;2023-12-22T07:14:11;7.90;99.90
73939;DHT22;62291;47.554;8.504;2023-12-22T07:16:37;7.90;99.90
73939;DHT22;62291;47.554;8.504;2023-12-22T07:19:04;7.90;99.90
73939;DHT22;62291;47.554;8.504;2023-12-22T07:21:29;7.90;99.90
73939;DHT22;62291;47.554;8.504;2023-12-22T07:23:55;7.90;99.90
73939;DHT22;62291;47.554;8.504;2023-12-22T07:26:21;7.90;99.90
73939;DHT22;62291;47.554;8.504;2023-12-22T07:28:47;7.90;99.90
73939;DHT22;62291;47.554;8.504;2023-12-22T07:31:14;8.00;99.90
73939;DHT22;62291;47.554;8.504;2023-12-22T07:33:40;7.90;99.90
73939;DHT22;62291;47.554;8.504;2023-12-22T07:36:06;7.90;99.90
73939;DHT22;62291;47.554;8.504;2023-12-22T07:38:32;7.90;99.90
73939;DHT22;62291;47.554;8.504;2023-12-22T07:40:58;7.90;99.90
73939;DHT22;62291;47.554;8.504;2023-12-22T07:43:24;7.90;99.90
73939;DHT22;62291;47.554;8.504;2023-12-22T07:45:50;7.90;99.90
73939;DHT22;62291;47.554;8.504;2023-12-22T07:48:17;7.90;99.90
73939;DHT22;62291;47.554;8.504;2023-12-22T07:50:42;7.90;99.90
73939;DHT22;62291;47.554;8.504;2023-12-22T07:53:08;8.00;99.90
73939;DHT22;62291;47.554;8.504;2023-12-22T07:55:35;8.00;99.90
73939;DHT22;62291;47.554;8.504;2023-12-22T07:58:00;7.90;99.90
73939;DHT22;62291;47.554;8.504;2023-12-22T08:00:26;8.00;99.90
73939;DHT22;62291;47.554;8.504;2023-12-22T08:02:52;7.90;99.90
73939;DHT22;62291;47.554;8.504;2023-12-22T08:05:18;8.00;99.90
73939;DHT22;62291;47.554;8.504;2023-12-22T08:07:44;7.90;99.90
73939;DHT22;62291;47.554;8.504;2023-12-22T08:10:10;7.90;99.90
73939;DHT22;62291;47.554;8.504;2023-12-22T08:12:36;7.90;99.90
73939;DHT22;62291;47.554;8.504;2023-12-22T08:15:02;7.90;99.90
73939;DHT22;62291;47.554;8.504;2023-12-22T08:17:28;7.90;99.90
73939;DHT22;62291;47.554;8.504;2023-12-22T08:19:54;8.00;99.90
73939;DHT22;62291;47.554;8.504;2023-12-22T08:22:20;8.00;99.90
73939;DHT22;62291;47.554;8.504;2023-12-22T08:24:45;8.00;99.90
73939;DHT22;62291;47.554;8.504;2023-12-22T08:27:13;8.00;99.90
73939;DHT22;62291;47.554;8.504;2023-12-22T08:29:38;8.00;99.90
73939;DHT22;62291;47.554;8.504;2023-12-22T08:32:04;8.10;99.90
73939;DHT22;62291;47.554;8.504;2023-12-22T08:34:30;8.00;99.90
73939;DHT22;62291;47.554;8.504;2023-12-22T08:36:55;8.10;99.90
73939;DHT22;62291;47.554;8.504;2023-12-22T08:39:21;8.00;99.90
73939;DHT22;62291;47.554;8.504;2023-12-22T08:41:47;8.00;99.90
73939;DHT22;62291;47.554;8.504;2023-12-22T08:44:13;8.00;99.90
73939;DHT22;62291;47.554;8.504;2023-12-22T08:46:40;8.00;99.90
73939;DHT22;62291;47.554;8.504;2023-12-22T08:49:06;8.00;99.90
73939;DHT22;62291;47.554;8.504;2023-12-22T08:51:32;8.00;99.90
73939;DHT22;62291;47.554;8.504;2023-12-22T08:53:59;8.00;99.90
73939;DHT22;62291;47.554;8.504;2023-12-22T08:56:25;8.10;99.90
73939;DHT22;62291;47.554;8.504;2023-12-22T08:58:52;8.10;99.90
73939;DHT22;62291;47.554;8.504;2023-12-22T09:01:20;8.10;99.90
73939;DHT22;62291;47.554;8.504;2023-12-22T09:03:46;8.20;99.90
73939;DHT22;62291;47.554;8.504;2023-12-22T09:06:19;8.20;99.90
73939;DHT22;62291;47.554;8.504;2023-12-22T09:08:45;8.20;99.90
73939;DHT22;62291;47.554;8.504;2023-12-22T09:11:12;8.20;99.90
73939;DHT22;62291;47.554;8.504;2023-12-22T09:13:37;8.20;99.90
73939;DHT22;62291;47.554;8.504;2023-12-22T09:16:04;8.20;99.90
73939;DHT22;62291;47.554;8.504;2023-12-22T09:18:30;8.20;99.90
73939;DHT22;62291;47.554;8.504;2023-12-22T09:20:56;8.20;99.90
73939;DHT22;62291;47.554;8.504;2023-12-22T09:23:23;8.20;99.90
73939;DHT22;62291;47.554;8.504;2023-12-22T09:25:49;8.30;99.90
73939;DHT22;62291;47.554;8.504;2023-12-22T09:28:14;8.30;99.90
73939;DHT22;62291;47.554;8.504;2023-12-22T09:30:40;8.40;99.90
73939;DHT22;62291;47.554;8.504;2023-12-22T09:33:08;8.40;99.90
73939;DHT22;62291;47.554;8.504;2023-12-22T09:35:34;8.40;99.90
73939;DHT22;62291;47.554;8.504;2023-12-22T09:38:01;8.50;99.90
73939;DHT22;62291;47.554;8.504;2023-12-22T09:40:26;8.60;99.90
73939;DHT22;62291;47.554;8.504;2023-12-22T09:42:57;8.60;99.90
73939;DHT22;62291;47.554;8.504;2023-12-22T09:45:24;8.60;99.90
73939;DHT22;62291;47.554;8.504;2023-12-22T09:47:51;8.70;99.90
73939;DHT22;62291;47.554;8.504;2023-12-22T09:50:17;8.70;99.90
73939;DHT22;62291;47.554;8.504;2023-12-22T09:52:43;8.70;99.90
73939;DHT22;62291;47.554;8.504;2023-12-22T09:55:15;8.70;99.90
73939;DHT22;62291;47.554;8.504;2023-12-22T09:57:41;8.70;99.90
73939;DHT22;62291;47.554;8.504;2023-12-22T10:00:09;8.70;99.90
73939;DHT22;62291;47.554;8.504;2023-12-22T10:02:37;8.80;99.90
73939;DHT22;62291;47.554;8.504;2023-12-22T10:05:03;8.80;99.90
73939;DHT22;62291;47.554;8.504;2023-12-22T10:07:30;8.80;99.90
73939;DHT22;62291;47.554;8.504;2023-12-22T10:09:57;8.80;99.90
73939;DHT22;62291;47.554;8.504;2023-12-22T10:12:24;8.90;99.90
73939;DHT22;62291;47.554;8.504;2023-12-22T10:14:51;8.90;99.90
73939;DHT22;62291;47.554;8.504;2023-12-22T10:17:18;8.90;99.90
73939;DHT22;62291;47.554;8.504;2023-12-22T10:19:44;9.00;99.90
73939;DHT22;62291;47.554;8.504;2023-12-22T10:22:10;9.00;99.90
73939;DHT22;62291;47.554;8.504;2023-12-22T10:27:05;9.00;99.90
73939;DHT22;62291;47.554;8.504;2023-12-22T10:29:31;9.00;99.90
73939;DHT22;62291;47.554;8.504;2023-12-22T10:31:58;9.00;99.90
73939;DHT22;62291;47.554;8.504;2023-12-22T10:34:25;9.00;99.90
73939;DHT22;62291;47.554;8.504;2023-12-22T10:36:51;9.00;99.90
73939;DHT22;62291;47.554;8.504;2023-12-22T10:39:17;9.00;99.90
73939;DHT22;62291;47.554;8.504;2023-12-22T10:41:43;8.90;99.90
73939;DHT22;62291;47.554;8.504;2023-12-22T10:44:09;8.90;99.90
73939;DHT22;62291;47.554;8.504;2023-12-22T10:46:35;8.80;99.90
73939;DHT22;62291;47.554;8.504;2023-12-22T10:49:02;8.80;99.90
73939;DHT22;62291;47.554;8.504;2023-12-22T10:51:30;8.80;99.90
73939;DHT22;62291;47.554;8.504;2023-12-22T10:53:59;8.70;99.90
73939;DHT22;62291;47.554;8.504;2023-12-22T10:56:28;8.70;99.90
73939;DHT22;62291;47.554;8.504;2023-12-22T10:58:54;8.70;99.90
73939;DHT22;62291;47.554;8.504;2023-12-22T11:01:25;8.70;99.90
73939;DHT22;62291;47.554;8.504;2023-12-22T11:03:56;8.70;99.90
73939;DHT22;62291;47.554;8.504;2023-12-22T11:06:24;8.60;99.90
73939;DHT22;62291;47.554;8.504;2023-12-22T11:08:53;8.60;99.90
73939;DHT22;62291;47.554;8.504;2023-12-22T11:11:27;8.60;99.90
73939;DHT22;62291;47.554;8.504;2023-12-22T11:13:57;8.60;99.90
73939;DHT22;62291;47.554;8.504;2023-12-22T11:16:24;8.50;99.90
73939;DHT22;62291;47.554;8.504;2023-12-22T11:18:53;8.50;99.90
73939;DHT22;62291;47.554;8.504;2023-12-22T11:21:22;8.50;99.90
73939;DHT22;62291;47.554;8.504;2023-12-22T11:23:49;8.40;99.90
73939;DHT22;62291;47.554;8.504;2023-12-22T11:26:17;8.40;99.90
73939;DHT22;62291;47.554;8.504;2023-12-22T11:28:45;8.40;99.90
73939;DHT22;62291;47.554;8.504;2023-12-22T11:31:12;8.40;99.90
73939;DHT22;62291;47.554;8.504;2023-12-22T11:33:42;8.30;99.90
73939;DHT22;62291;47.554;8.504;2023-12-22T11:36:08;8.30;99.90
73939;DHT22;62291;47.554;8.504;2023-12-22T11:38:35;8.30;99.90
73939;DHT22;62291;47.554;8.504;2023-12-22T11:41:01;8.20;99.90
73939;DHT22;62291;47.554;8.504;2023-12-22T11:43:28;8.10;99.90
73939;DHT22;62291;47.554;8.504;2023-12-22T11:45:55;8.00;99.90
73939;DHT22;62291;47.554;8.504;2023-12-22T11:48:22;7.90;99.90
73939;DHT22;62291;47.554;8.504;2023-12-22T11:50:48;7.90;99.90
73939;DHT22;62291;47.554;8.504;2023-12-22T11:53:34;7.80;99.90
73939;DHT22;62291;47.554;8.504;2023-12-22T11:56:02;7.80;99.90
73939;DHT22;62291;47.554;8.504;2023-12-22T11:58:41;7.70;99.90
73939;DHT22;62291;47.554;8.504;2023-12-22T12:01:09;7.60;99.90
73939;DHT22;62291;47.554;8.504;2023-12-22T12:08:39;7.50;99.90
73939;DHT22;62291;47.554;8.504;2023-12-22T12:11:05;7.50;99.90
73939;DHT22;62291;47.554;8.504;2023-12-22T12:13:33;7.50;99.90
73939;DHT22;62291;47.554;8.504;2023-12-22T12:16:00;7.50;99.90
73939;DHT22;62291;47.554;8.504;2023-12-22T12:18:28;7.40;99.90
73939;DHT22;62291;47.554;8.504;2023-12-22T12:20:54;7.30;99.90
73939;DHT22;62291;47.554;8.504;2023-12-22T12:23:23;7.40;99.90
73939;DHT22;62291;47.554;8.504;2023-12-22T12:25:49;7.40;99.90
73939;DHT22;62291;47.554;8.504;2023-12-22T12:28:15;7.40;99.90
73939;DHT22;62291;47.554;8.504;2023-12-22T12:30:44;7.40;99.90
73939;DHT22;62291;47.554;8.504;2023-12-22T12:33:12;7.40;99.90
73939;DHT22;62291;47.554;8.504;2023-12-22T12:35:39;7.40;99.90
73939;DHT22;62291;47.554;8.504;2023-12-22T12:38:05;7.40;99.90
73939;DHT22;62291;47.554;8.504;2023-12-22T12:40:31;7.40;99.90
73939;DHT22;62291;47.554;8.504;2023-12-22T12:42:59;7.40;99.90
73939;DHT22;62291;47.554;8.504;2023-12-22T12:45:26;7.40;99.90
73939;DHT22;62291;47.554;8.504;2023-12-22T12:47:59;7.50;99.90
73939;DHT22;62291;47.554;8.504;2023-12-22T12:50:25;7.40;99.90
73939;DHT22;62291;47.554;8.504;2023-12-22T12:52:52;7.50;99.90
73939;DHT22;62291;47.554;8.504;2023-12-22T12:55:22;7.50;99.90
73939;DHT22;62291;47.554;8.504;2023-12-22T12:57:52;7.50;99.90
73939;DHT22;62291;47.554;8.504;2023-12-22T13:00:38;7.50;99.90
73939;DHT22;62291;47.554;8.504;2023-12-22T13:03:06;7.50;99.90
73939;DHT22;62291;47.554;8.504;2023-12-22T13:05:32;7.50;99.90
73939;DHT22;62291;47.554;8.504;2023-12-22T13:08:11;7.50;99.90
73939;DHT22;62291;47.554;8.504;2023-12-22T13:10:38;7.60;99.90
73939;DHT22;62291;47.554;8.504;2023-12-22T13:13:04;7.60;99.90
73939;DHT22;62291;47.554;8.504;2023-12-22T13:15:30;7.60;99.90
73939;DHT22;62291;47.554;8.504;2023-12-22T13:17:56;7.60;99.90
73939;DHT22;62291;47.554;8.504;2023-12-22T13:20:22;7.70;99.90
73939;DHT22;62291;47.554;8.504;2023-12-22T13:22:48;7.70;99.90
73939;DHT22;62291;47.554;8.504;2023-12-22T13:25:13;7.80;99.90
73939;DHT22;62291;47.554;8.504;2023-12-22T13:27:50;7.80;99.90
73939;DHT22;62291;47.554;8.504;2023-12-22T13:32:57;7.90;99.90
73939;DHT22;62291;47.554;8.504;2023-12-22T13:35:24;7.90;99.90
73939;DHT22;62291;47.554;8.504;2023-12-22T13:37:50;8.00;99.90
73939;DHT22;62291;47.554;8.504;2023-12-22T13:40:16;8.00;99.90
73939;DHT22;62291;47.554;8.504;2023-12-22T13:42:41;8.00;99.90
73939;DHT22;62291;47.554;8.504;2023-12-22T13:45:10;8.00;99.90
73939;DHT22;62291;47.554;8.504;2023-12-22T13:47:43;8.10;99.90
73939;DHT22;62291;47.554;8.504;2023-12-22T13:50:15;8.10;99.90
73939;DHT22;62291;47.554;8.504;2023-12-22T13:52:41;8.10;99.90
73939;DHT22;62291;47.554;8.504;2023-12-22T13:55:13;8.00;99.90
73939;DHT22;62291;47.554;8.504;2023-12-22T13:57:39;8.10;99.90
73939;DHT22;62291;47.554;8.504;2023-12-22T14:02:46;8.10;99.90
73939;DHT22;62291;47.554;8.504;2023-12-22T14:05:17;8.10;99.90
73939;DHT22;62291;47.554;8.504;2023-12-22T14:07:43;8.10;99.90
73939;DHT22;62291;47.554;8.504;2023-12-22T14:10:10;8.10;99.90
73939;DHT22;62291;47.554;8.504;2023-12-22T14:12:40;8.10;99.90
73939;DHT22;62291;47.554;8.504;2023-12-22T14:15:06;8.20;99.90
73939;DHT22;62291;47.554;8.504;2023-12-22T14:17:32;8.10;99.90
73939;DHT22;62291;47.554;8.504;2023-12-22T14:19:58;8.20;99.90
73939;DHT22;62291;47.554;8.504;2023-12-22T14:22:24;8.20;99.90
73939;DHT22;62291;47.554;8.504;2023-12-22T14:24:50;8.20;99.90
73939;DHT22;62291;47.554;8.504;2023-12-22T14:27:16;8.20;99.90
73939;DHT22;62291;47.554;8.504;2023-12-22T14:29:46;8.20;99.90
73939;DHT22;62291;47.554;8.504;2023-12-22T14:32:12;8.20;99.90
73939;DHT22;62291;47.554;8.504;2023-12-22T14:34:40;8.20;99.90
73939;DHT22;62291;47.554;8.504;2023-12-22T14:37:06;8.20;99.90
73939;DHT22;62291;47.554;8.504;2023-12-22T14:39:31;8.30;99.90
73939;DHT22;62291;47.554;8.504;2023-12-22T14:41:59;8.30;99.90
73939;DHT22;62291;47.554;8.504;2023-12-22T14:44:24;8.30;99.90
73939;DHT22;62291;47.554;8.504;2023-12-22T14:46:50;8.20;99.90
73939;DHT22;62291;47.554;8.504;2023-12-22T14:49:16;8.20;99.90
73939;DHT22;62291;47.554;8.504;2023-12-22T14:51:42;8.20;99.90
73939;DHT22;62291;47.554;8.504;2023-12-22T14:54:08;8.20;99.90
73939;DHT22;62291;47.554;8.504;2023-12-22T14:56:34;8.20;99.90
73939;DHT22;62291;47.554;8.504;2023-12-22T14:59:03;8.30;99.90
73939;DHT22;62291;47.554;8.504;2023-12-22T15:01:29;8.30;99.90
73939;DHT22;62291;47.554;8.504;2023-12-22T15:03:58;8.30;99.90
73939;DHT22;62291;47.554;8.504;2023-12-22T15:06:24;8.30;99.90
73939;DHT22;62291;47.554;8.504;2023-12-22T15:08:49;8.40;99.90
73939;DHT22;62291;47.554;8.504;2023-12-22T15:11:15;8.40;99.90
73939;DHT22;62291;47.554;8.504;2023-12-22T15:13:41;8.40;99.90
73939;DHT22;62291;47.554;8.504;2023-12-22T15:16:07;8.30;99.90
73939;DHT22;62291;47.554;8.504;2023-12-22T15:18:33;8.40;99.90
73939;DHT22;62291;47.554;8.504;2023-12-22T15:20:59;8.40;99.90
73939;DHT22;62291;47.554;8.504;2023-12-22T15:23:24;8.40;99.90
73939;DHT22;62291;47.554;8.504;2023-12-22T15:25:51;8.40;99.90
73939;DHT22;62291;47.554;8.504;2023-12-22T15:28:17;8.50;99.90
73939;DHT22;62291;47.554;8.504;2023-12-22T15:30:43;8.50;99.90
73939;DHT22;62291;47.554;8.504;2023-12-22T15:33:09;8.50;99.90
73939;DHT22;62291;47.554;8.504;2023-12-22T15:35:34;8.50;99.90
73939;DHT22;62291;47.554;8.504;2023-12-22T15:38:00;8.40;99.90
73939;DHT22;62291;47.554;8.504;2023-12-22T15:40:26;8.50;99.90
73939;DHT22;62291;47.554;8.504;2023-12-22T15:42:51;8.50;99.90
73939;DHT22;62291;47.554;8.504;2023-12-22T15:45:17;8.50;99.90
73939;DHT22;62291;47.554;8.504;2023-12-22T15:47:42;8.50;99.90
73939;DHT22;62291;47.554;8.504;2023-12-22T15:50:09;8.50;99.90
73939;DHT22;62291;47.554;8.504;2023-12-22T15:52:35;8.50;99.90
73939;DHT22;62291;47.554;8.504;2023-12-22T15:55:00;8.50;99.90
73939;DHT22;62291;47.554;8.504;2023-12-22T15:57:26;8.50;99.90
73939;DHT22;62291;47.554;8.504;2023-12-22T15:59:52;8.50;99.90
73939;DHT22;62291;47.554;8.504;2023-12-22T16:02:18;8.50;99.90